sensor_id;sensor_type;location;lat;lon;timestamp;P1;durP1;ratioP1;P2;durP2;ratioP2
142;SDS011;63667;49.046;8.468;2023-07-13T00:00:26;6.20;;;3.73;;
142;SDS011;63667;49.046;8.468;2023-07-13T00:02:53;3.27;;;3.13;;
142;SDS011;63667;49.046;8.468;2023-07-13T00:05:20;6.53;;;3.50;;
142;SDS011;63667;49.046;8.468;2023-07-13T00:07:48;6.97;;;3.20;;
142;SDS011;63667;49.046;8.468;2023-07-13T00:10:17;7.43;;;3.23;;
142;SDS011;63667;49.046;8.468;2023-07-13T00:12:43;6.13;;;3.60;;
142;SDS011;63667;49.046;8.468;2023-07-13T00:15:15;8.30;;;3.00;;
142;SDS011;63667;49.046;8.468;2023-07-13T00:17:43;10.63;;;3.50;;
142;SDS011;63667;49.046;8.468;2023-07-13T00:20:11;6.17;;;3.30;;
142;SDS011;63667;49.046;8.468;2023-07-13T00:22:39;11.63;;;3.20;;
142;SDS011;63667;49.046;8.468;2023-07-13T00:25:05;7.73;;;3.23;;
142;SDS011;63667;49.046;8.468;2023-07-13T00:27:33;8.67;;;3.30;;
142;SDS011;63667;49.046;8.468;2023-07-13T00:30:00;3.70;;;3.50;;
142;SDS011;63667;49.046;8.468;2023-07-13T00:32:28;5.47;;;3.40;;
142;SDS011;63667;49.046;8.468;2023-07-13T00:34:56;7.17;;;3.50;;
142;SDS011;63667;49.046;8.468;2023-07-13T00:37:26;13.70;;;4.47;;
142;SDS011;63667;49.046;8.468;2023-07-13T00:39:53;5.70;;;3.60;;
142;SDS011;63667;49.046;8.468;2023-07-13T00:42:20;5.47;;;3.20;;
142;SDS011;63667;49.046;8.468;2023-07-13T00:47:33;10.97;;;3.77;;
142;SDS011;63667;49.046;8.468;2023-07-13T00:50:01;6.37;;;3.43;;
142;SDS011;63667;49.046;8.468;2023-07-13T00:52:29;11.33;;;3.60;;
142;SDS011;63667;49.046;8.468;2023-07-13T00:54:57;6.00;;;3.00;;
142;SDS011;63667;49.046;8.468;2023-07-13T00:57:26;11.00;;;3.70;;
142;SDS011;63667;49.046;8.468;2023-07-13T00:59:54;6.60;;;3.20;;
142;SDS011;63667;49.046;8.468;2023-07-13T01:02:22;5.37;;;3.70;;
142;SDS011;63667;49.046;8.468;2023-07-13T01:04:50;7.73;;;3.87;;
142;SDS011;63667;49.046;8.468;2023-07-13T01:07:16;11.03;;;3.27;;
142;SDS011;63667;49.046;8.468;2023-07-13T01:09:45;19.67;;;3.60;;
142;SDS011;63667;49.046;8.468;2023-07-13T01:12:11;8.03;;;3.30;;
142;SDS011;63667;49.046;8.468;2023-07-13T01:14:39;8.10;;;3.00;;
142;SDS011;63667;49.046;8.468;2023-07-13T01:17:08;9.50;;;3.33;;
142;SDS011;63667;49.046;8.468;2023-07-13T01:19:38;11.70;;;3.20;;
142;SDS011;63667;49.046;8.468;2023-07-13T01:22:09;8.73;;;3.40;;
142;SDS011;63667;49.046;8.468;2023-07-13T01:24:38;5.30;;;3.47;;
142;SDS011;63667;49.046;8.468;2023-07-13T01:27:06;4.47;;;3.30;;
142;SDS011;63667;49.046;8.468;2023-07-13T01:29:34;10.57;;;3.60;;
142;SDS011;63667;49.046;8.468;2023-07-13T01:32:00;9.17;;;4.47;;
142;SDS011;63667;49.046;8.468;2023-07-13T01:34:27;16.33;;;7.17;;
142;SDS011;63667;49.046;8.468;2023-07-13T01:36:55;19.47;;;9.20;;
142;SDS011;63667;49.046;8.468;2023-07-13T01:39:22;17.13;;;8.77;;
142;SDS011;63667;49.046;8.468;2023-07-13T01:41:49;19.87;;;9.67;;
142;SDS011;63667;49.046;8.468;2023-07-13T01:44:16;22.13;;;8.60;;
142;SDS011;63667;49.046;8.468;2023-07-13T01:46:44;13.40;;;7.20;;
142;SDS011;63667;49.046;8.468;2023-07-13T01:49:12;12.73;;;7.33;;
142;SDS011;63667;49.046;8.468;2023-07-13T01:51:39;27.23;;;8.00;;
142;SDS011;63667;49.046;8.468;2023-07-13T01:54:05;16.50;;;6.90;;
142;SDS011;63667;49.046;8.468;2023-07-13T01:56:32;14.23;;;6.40;;
142;SDS011;63667;49.046;8.468;2023-07-13T01:58:59;14.83;;;6.80;;
142;SDS011;63667;49.046;8.468;2023-07-13T02:01:25;12.57;;;5.60;;
142;SDS011;63667;49.046;8.468;2023-07-13T02:03:52;12.33;;;5.73;;
142;SDS011;63667;49.046;8.468;2023-07-13T02:06:20;11.53;;;6.20;;
142;SDS011;63667;49.046;8.468;2023-07-13T02:08:48;9.80;;;5.37;;
142;SDS011;63667;49.046;8.468;2023-07-13T02:11:16;12.30;;;4.97;;
142;SDS011;63667;49.046;8.468;2023-07-13T02:13:43;8.13;;;5.20;;
142;SDS011;63667;49.046;8.468;2023-07-13T02:16:10;10.70;;;5.57;;
142;SDS011;63667;49.046;8.468;2023-07-13T02:18:37;11.20;;;5.17;;
142;SDS011;63667;49.046;8.468;2023-07-13T02:21:05;8.77;;;4.90;;
142;SDS011;63667;49.046;8.468;2023-07-13T02:23:32;7.43;;;4.23;;
142;SDS011;63667;49.046;8.468;2023-07-13T02:26:00;5.67;;;4.13;;
142;SDS011;63667;49.046;8.468;2023-07-13T02:28:28;6.63;;;3.60;;
142;SDS011;63667;49.046;8.468;2023-07-13T02:31:03;4.30;;;3.60;;
142;SDS011;63667;49.046;8.468;2023-07-13T02:33:31;13.23;;;4.10;;
142;SDS011;63667;49.046;8.468;2023-07-13T02:35:58;7.63;;;4.13;;
142;SDS011;63667;49.046;8.468;2023-07-13T02:38:25;9.20;;;3.90;;
142;SDS011;63667;49.046;8.468;2023-07-13T02:40:53;6.87;;;3.70;;
142;SDS011;63667;49.046;8.468;2023-07-13T02:43:21;12.00;;;3.63;;
142;SDS011;63667;49.046;8.468;2023-07-13T02:45:49;6.30;;;3.77;;
142;SDS011;63667;49.046;8.468;2023-07-13T02:48:16;6.70;;;4.20;;
142;SDS011;63667;49.046;8.468;2023-07-13T02:50:44;9.43;;;4.40;;
142;SDS011;63667;49.046;8.468;2023-07-13T02:53:11;5.23;;;3.50;;
142;SDS011;63667;49.046;8.468;2023-07-13T02:55:38;4.80;;;4.20;;
142;SDS011;63667;49.046;8.468;2023-07-13T02:58:06;7.53;;;4.03;;
142;SDS011;63667;49.046;8.468;2023-07-13T03:00:38;6.70;;;4.03;;
142;SDS011;63667;49.046;8.468;2023-07-13T03:03:06;8.90;;;4.10;;
142;SDS011;63667;49.046;8.468;2023-07-13T03:05:34;6.40;;;3.80;;
142;SDS011;63667;49.046;8.468;2023-07-13T03:08:01;6.00;;;4.33;;
142;SDS011;63667;49.046;8.468;2023-07-13T03:10:29;9.03;;;3.77;;
142;SDS011;63667;49.046;8.468;2023-07-13T03:12:57;7.40;;;4.30;;
142;SDS011;63667;49.046;8.468;2023-07-13T03:15:24;11.60;;;4.40;;
142;SDS011;63667;49.046;8.468;2023-07-13T03:17:51;6.43;;;4.40;;
142;SDS011;63667;49.046;8.468;2023-07-13T03:20:18;9.13;;;4.40;;
142;SDS011;63667;49.046;8.468;2023-07-13T03:22:46;4.63;;;4.10;;
142;SDS011;63667;49.046;8.468;2023-07-13T03:25:12;7.40;;;3.90;;
142;SDS011;63667;49.046;8.468;2023-07-13T03:27:39;12.70;;;4.13;;
142;SDS011;63667;49.046;8.468;2023-07-13T03:30:06;10.00;;;5.00;;
142;SDS011;63667;49.046;8.468;2023-07-13T03:32:34;8.30;;;4.50;;
142;SDS011;63667;49.046;8.468;2023-07-13T03:35:02;8.10;;;4.43;;
142;SDS011;63667;49.046;8.468;2023-07-13T03:37:30;6.97;;;4.80;;
142;SDS011;63667;49.046;8.468;2023-07-13T03:39:57;10.40;;;4.63;;
142;SDS011;63667;49.046;8.468;2023-07-13T03:42:24;11.37;;;4.60;;
142;SDS011;63667;49.046;8.468;2023-07-13T03:44:52;17.67;;;4.60;;
142;SDS011;63667;49.046;8.468;2023-07-13T03:47:19;6.90;;;4.30;;
142;SDS011;63667;49.046;8.468;2023-07-13T03:49:46;13.93;;;4.70;;
142;SDS011;63667;49.046;8.468;2023-07-13T03:52:14;10.87;;;4.63;;
142;SDS011;63667;49.046;8.468;2023-07-13T03:54:41;11.30;;;4.17;;
142;SDS011;63667;49.046;8.468;2023-07-13T03:57:08;5.97;;;4.30;;
142;SDS011;63667;49.046;8.468;2023-07-13T03:59:35;7.97;;;4.17;;
142;SDS011;63667;49.046;8.468;2023-07-13T04:02:02;16.10;;;4.00;;
142;SDS011;63667;49.046;8.468;2023-07-13T04:04:30;7.90;;;4.60;;
142;SDS011;63667;49.046;8.468;2023-07-13T04:06:58;7.17;;;4.57;;
142;SDS011;63667;49.046;8.468;2023-07-13T04:09:25;6.53;;;4.20;;
142;SDS011;63667;49.046;8.468;2023-07-13T04:11:52;9.07;;;4.13;;
142;SDS011;63667;49.046;8.468;2023-07-13T04:14:20;8.40;;;4.83;;
142;SDS011;63667;49.046;8.468;2023-07-13T04:16:47;5.10;;;4.20;;
142;SDS011;63667;49.046;8.468;2023-07-13T04:19:15;10.53;;;4.13;;
142;SDS011;63667;49.046;8.468;2023-07-13T04:21:42;9.13;;;4.33;;
142;SDS011;63667;49.046;8.468;2023-07-13T04:24:09;7.93;;;4.30;;
142;SDS011;63667;49.046;8.468;2023-07-13T04:26:36;7.33;;;4.30;;
142;SDS011;63667;49.046;8.468;2023-07-13T04:29:05;6.80;;;3.90;;
142;SDS011;63667;49.046;8.468;2023-07-13T04:31:32;10.30;;;4.20;;
142;SDS011;63667;49.046;8.468;2023-07-13T04:34:00;6.70;;;4.50;;
142;SDS011;63667;49.046;8.468;2023-07-13T04:36:28;8.33;;;4.50;;
142;SDS011;63667;49.046;8.468;2023-07-13T04:38:56;6.30;;;4.37;;
142;SDS011;63667;49.046;8.468;2023-07-13T04:41:24;13.20;;;3.90;;
142;SDS011;63667;49.046;8.468;2023-07-13T04:43:51;6.70;;;4.37;;
142;SDS011;63667;49.046;8.468;2023-07-13T04:46:19;7.47;;;4.60;;
142;SDS011;63667;49.046;8.468;2023-07-13T04:48:46;8.17;;;3.70;;
142;SDS011;63667;49.046;8.468;2023-07-13T04:51:14;8.93;;;4.03;;
142;SDS011;63667;49.046;8.468;2023-07-13T04:53:41;6.33;;;4.20;;
142;SDS011;63667;49.046;8.468;2023-07-13T04:56:09;6.00;;;3.97;;
142;SDS011;63667;49.046;8.468;2023-07-13T04:58:36;7.13;;;4.13;;
142;SDS011;63667;49.046;8.468;2023-07-13T05:01:06;9.00;;;4.13;;
142;SDS011;63667;49.046;8.468;2023-07-13T05:03:34;5.23;;;4.10;;
142;SDS011;63667;49.046;8.468;2023-07-13T05:06:03;4.00;;;3.80;;
142;SDS011;63667;49.046;8.468;2023-07-13T05:08:31;7.43;;;3.93;;
142;SDS011;63667;49.046;8.468;2023-07-13T05:11:03;11.50;;;4.67;;
142;SDS011;63667;49.046;8.468;2023-07-13T05:13:30;5.87;;;4.10;;
142;SDS011;63667;49.046;8.468;2023-07-13T05:16:00;7.30;;;4.20;;
142;SDS011;63667;49.046;8.468;2023-07-13T05:18:27;6.07;;;3.97;;
142;SDS011;63667;49.046;8.468;2023-07-13T05:20:58;5.83;;;3.70;;
142;SDS011;63667;49.046;8.468;2023-07-13T05:23:25;11.83;;;4.30;;
142;SDS011;63667;49.046;8.468;2023-07-13T05:25:52;6.50;;;4.00;;
142;SDS011;63667;49.046;8.468;2023-07-13T05:28:19;10.00;;;4.40;;
142;SDS011;63667;49.046;8.468;2023-07-13T05:30:48;7.40;;;4.03;;
142;SDS011;63667;49.046;8.468;2023-07-13T05:33:15;8.10;;;4.60;;
142;SDS011;63667;49.046;8.468;2023-07-13T05:35:42;8.63;;;3.90;;
142;SDS011;63667;49.046;8.468;2023-07-13T05:38:09;5.33;;;4.20;;
142;SDS011;63667;49.046;8.468;2023-07-13T05:40:36;13.17;;;4.00;;
142;SDS011;63667;49.046;8.468;2023-07-13T05:43:02;9.63;;;4.17;;
142;SDS011;63667;49.046;8.468;2023-07-13T05:45:29;7.50;;;4.17;;
142;SDS011;63667;49.046;8.468;2023-07-13T05:47:55;5.43;;;4.10;;
142;SDS011;63667;49.046;8.468;2023-07-13T05:50:22;9.17;;;4.37;;
142;SDS011;63667;49.046;8.468;2023-07-13T05:52:48;5.27;;;4.10;;
142;SDS011;63667;49.046;8.468;2023-07-13T05:55:16;13.40;;;4.30;;
142;SDS011;63667;49.046;8.468;2023-07-13T05:57:44;8.00;;;4.30;;
142;SDS011;63667;49.046;8.468;2023-07-13T06:00:11;5.87;;;4.00;;
142;SDS011;63667;49.046;8.468;2023-07-13T06:02:40;11.67;;;4.13;;
142;SDS011;63667;49.046;8.468;2023-07-13T06:05:08;13.27;;;4.20;;
142;SDS011;63667;49.046;8.468;2023-07-13T06:07:35;7.90;;;4.30;;
142;SDS011;63667;49.046;8.468;2023-07-13T06:10:02;7.03;;;4.40;;
142;SDS011;63667;49.046;8.468;2023-07-13T06:12:30;6.70;;;4.00;;
142;SDS011;63667;49.046;8.468;2023-07-13T06:14:57;11.50;;;4.57;;
142;SDS011;63667;49.046;8.468;2023-07-13T06:17:24;8.47;;;4.70;;
142;SDS011;63667;49.046;8.468;2023-07-13T06:19:52;7.47;;;4.30;;
142;SDS011;63667;49.046;8.468;2023-07-13T06:22:19;8.50;;;4.10;;
142;SDS011;63667;49.046;8.468;2023-07-13T06:24:46;16.87;;;4.10;;
142;SDS011;63667;49.046;8.468;2023-07-13T06:27:14;7.50;;;3.90;;
142;SDS011;63667;49.046;8.468;2023-07-13T06:29:41;6.33;;;3.70;;
142;SDS011;63667;49.046;8.468;2023-07-13T06:32:10;7.20;;;4.40;;
142;SDS011;63667;49.046;8.468;2023-07-13T06:34:37;6.57;;;3.47;;
142;SDS011;63667;49.046;8.468;2023-07-13T06:37:04;7.93;;;4.10;;
142;SDS011;63667;49.046;8.468;2023-07-13T06:39:32;8.30;;;3.30;;
142;SDS011;63667;49.046;8.468;2023-07-13T06:41:59;6.60;;;3.37;;
142;SDS011;63667;49.046;8.468;2023-07-13T06:44:27;6.10;;;3.43;;
142;SDS011;63667;49.046;8.468;2023-07-13T06:46:54;5.30;;;3.33;;
142;SDS011;63667;49.046;8.468;2023-07-13T06:49:22;4.40;;;3.13;;
142;SDS011;63667;49.046;8.468;2023-07-13T06:51:48;7.53;;;3.50;;
142;SDS011;63667;49.046;8.468;2023-07-13T06:54:15;6.60;;;3.53;;
142;SDS011;63667;49.046;8.468;2023-07-13T06:56:43;4.60;;;3.13;;
142;SDS011;63667;49.046;8.468;2023-07-13T06:59:10;5.07;;;2.97;;
142;SDS011;63667;49.046;8.468;2023-07-13T07:01:37;7.70;;;3.83;;
142;SDS011;63667;49.046;8.468;2023-07-13T07:04:04;6.20;;;3.20;;
142;SDS011;63667;49.046;8.468;2023-07-13T07:06:32;7.50;;;4.90;;
142;SDS011;63667;49.046;8.468;2023-07-13T07:08:59;6.80;;;3.27;;
142;SDS011;63667;49.046;8.468;2023-07-13T07:11:27;5.77;;;3.20;;
142;SDS011;63667;49.046;8.468;2023-07-13T07:13:54;4.27;;;2.93;;
142;SDS011;63667;49.046;8.468;2023-07-13T07:16:24;4.97;;;3.30;;
142;SDS011;63667;49.046;8.468;2023-07-13T07:18:51;7.23;;;3.07;;
142;SDS011;63667;49.046;8.468;2023-07-13T07:21:18;11.30;;;3.20;;
142;SDS011;63667;49.046;8.468;2023-07-13T07:23:48;7.20;;;3.63;;
142;SDS011;63667;49.046;8.468;2023-07-13T07:26:16;8.70;;;3.57;;
142;SDS011;63667;49.046;8.468;2023-07-13T07:28:43;6.10;;;3.43;;
142;SDS011;63667;49.046;8.468;2023-07-13T07:31:10;8.60;;;3.20;;
142;SDS011;63667;49.046;8.468;2023-07-13T07:33:37;3.90;;;3.00;;
142;SDS011;63667;49.046;8.468;2023-07-13T07:36:04;5.50;;;3.23;;
142;SDS011;63667;49.046;8.468;2023-07-13T07:38:32;11.93;;;3.40;;
142;SDS011;63667;49.046;8.468;2023-07-13T07:41:02;6.87;;;3.50;;
142;SDS011;63667;49.046;8.468;2023-07-13T07:43:29;9.63;;;3.20;;
142;SDS011;63667;49.046;8.468;2023-07-13T07:45:58;8.23;;;3.43;;
142;SDS011;63667;49.046;8.468;2023-07-13T07:48:25;5.30;;;3.20;;
142;SDS011;63667;49.046;8.468;2023-07-13T07:50:52;5.77;;;3.50;;
142;SDS011;63667;49.046;8.468;2023-07-13T07:53:19;5.80;;;3.43;;
142;SDS011;63667;49.046;8.468;2023-07-13T07:55:47;4.00;;;3.37;;
142;SDS011;63667;49.046;8.468;2023-07-13T07:58:14;7.57;;;3.57;;
142;SDS011;63667;49.046;8.468;2023-07-13T08:00:42;5.57;;;3.20;;
142;SDS011;63667;49.046;8.468;2023-07-13T08:03:09;10.60;;;3.60;;
142;SDS011;63667;49.046;8.468;2023-07-13T08:05:36;4.00;;;3.10;;
142;SDS011;63667;49.046;8.468;2023-07-13T08:08:04;7.30;;;3.30;;
142;SDS011;63667;49.046;8.468;2023-07-13T08:10:31;4.40;;;3.20;;
142;SDS011;63667;49.046;8.468;2023-07-13T08:12:58;5.93;;;3.03;;
142;SDS011;63667;49.046;8.468;2023-07-13T08:15:25;3.73;;;2.90;;
142;SDS011;63667;49.046;8.468;2023-07-13T08:17:53;4.40;;;2.90;;
142;SDS011;63667;49.046;8.468;2023-07-13T08:20:19;3.13;;;2.90;;
142;SDS011;63667;49.046;8.468;2023-07-13T08:22:47;3.90;;;2.93;;
142;SDS011;63667;49.046;8.468;2023-07-13T08:25:14;5.07;;;2.80;;
142;SDS011;63667;49.046;8.468;2023-07-13T08:27:42;5.63;;;3.13;;
142;SDS011;63667;49.046;8.468;2023-07-13T08:30:09;6.23;;;3.23;;
142;SDS011;63667;49.046;8.468;2023-07-13T08:32:37;13.47;;;3.43;;
142;SDS011;63667;49.046;8.468;2023-07-13T08:35:05;4.13;;;3.00;;
142;SDS011;63667;49.046;8.468;2023-07-13T08:37:33;5.77;;;3.37;;
142;SDS011;63667;49.046;8.468;2023-07-13T08:40:00;8.93;;;3.40;;
142;SDS011;63667;49.046;8.468;2023-07-13T08:45:20;4.47;;;3.10;;
142;SDS011;63667;49.046;8.468;2023-07-13T08:47:46;3.03;;;2.80;;
142;SDS011;63667;49.046;8.468;2023-07-13T08:50:15;9.87;;;3.30;;
142;SDS011;63667;49.046;8.468;2023-07-13T08:52:43;7.70;;;3.00;;
142;SDS011;63667;49.046;8.468;2023-07-13T08:55:12;6.77;;;3.17;;
142;SDS011;63667;49.046;8.468;2023-07-13T08:57:40;4.87;;;2.77;;
142;SDS011;63667;49.046;8.468;2023-07-13T09:00:10;5.53;;;3.23;;
142;SDS011;63667;49.046;8.468;2023-07-13T09:02:58;7.90;;;3.30;;
142;SDS011;63667;49.046;8.468;2023-07-13T09:05:29;7.33;;;3.30;;
142;SDS011;63667;49.046;8.468;2023-07-13T09:10:46;4.80;;;3.10;;
142;SDS011;63667;49.046;8.468;2023-07-13T09:13:17;4.50;;;2.90;;
142;SDS011;63667;49.046;8.468;2023-07-13T09:15:49;5.13;;;3.00;;
142;SDS011;63667;49.046;8.468;2023-07-13T09:21:03;6.67;;;2.90;;
142;SDS011;63667;49.046;8.468;2023-07-13T09:23:31;3.93;;;2.70;;
142;SDS011;63667;49.046;8.468;2023-07-13T09:26:00;5.27;;;2.83;;
142;SDS011;63667;49.046;8.468;2023-07-13T09:28:33;4.33;;;2.70;;
142;SDS011;63667;49.046;8.468;2023-07-13T09:31:03;6.60;;;3.20;;
142;SDS011;63667;49.046;8.468;2023-07-13T09:33:31;9.13;;;2.70;;
142;SDS011;63667;49.046;8.468;2023-07-13T09:36:00;3.43;;;2.93;;
142;SDS011;63667;49.046;8.468;2023-07-13T09:38:28;5.20;;;2.87;;
142;SDS011;63667;49.046;8.468;2023-07-13T09:44:00;3.27;;;2.93;;
142;SDS011;63667;49.046;8.468;2023-07-13T09:46:28;3.77;;;3.00;;
142;SDS011;63667;49.046;8.468;2023-07-13T09:48:55;3.80;;;2.90;;
142;SDS011;63667;49.046;8.468;2023-07-13T09:51:23;10.77;;;2.80;;
142;SDS011;63667;49.046;8.468;2023-07-13T09:53:50;4.53;;;2.57;;
142;SDS011;63667;49.046;8.468;2023-07-13T09:56:26;9.47;;;2.70;;
142;SDS011;63667;49.046;8.468;2023-07-13T09:58:53;3.40;;;2.60;;
142;SDS011;63667;49.046;8.468;2023-07-13T10:01:33;5.80;;;2.73;;
142;SDS011;63667;49.046;8.468;2023-07-13T10:04:00;3.20;;;2.50;;
142;SDS011;63667;49.046;8.468;2023-07-13T10:06:28;10.43;;;2.70;;
142;SDS011;63667;49.046;8.468;2023-07-13T10:08:55;6.30;;;2.90;;
142;SDS011;63667;49.046;8.468;2023-07-13T10:11:28;5.13;;;3.07;;
142;SDS011;63667;49.046;8.468;2023-07-13T10:14:00;4.13;;;2.90;;
142;SDS011;63667;49.046;8.468;2023-07-13T10:16:29;3.37;;;2.93;;
142;SDS011;63667;49.046;8.468;2023-07-13T10:18:59;4.10;;;3.00;;
142;SDS011;63667;49.046;8.468;2023-07-13T10:21:30;3.10;;;2.90;;
142;SDS011;63667;49.046;8.468;2023-07-13T10:24:15;4.17;;;2.93;;
142;SDS011;63667;49.046;8.468;2023-07-13T10:29:21;4.20;;;3.07;;
142;SDS011;63667;49.046;8.468;2023-07-13T10:31:49;8.00;;;3.80;;
142;SDS011;63667;49.046;8.468;2023-07-13T10:34:16;7.20;;;2.97;;
142;SDS011;63667;49.046;8.468;2023-07-13T10:36:45;3.53;;;2.80;;
142;SDS011;63667;49.046;8.468;2023-07-13T10:39:19;6.27;;;2.73;;
142;SDS011;63667;49.046;8.468;2023-07-13T10:42:04;7.27;;;2.93;;
142;SDS011;63667;49.046;8.468;2023-07-13T10:44:32;3.17;;;2.80;;
142;SDS011;63667;49.046;8.468;2023-07-13T10:47:01;11.43;;;2.90;;
142;SDS011;63667;49.046;8.468;2023-07-13T10:49:29;6.67;;;3.03;;
142;SDS011;63667;49.046;8.468;2023-07-13T10:51:58;3.80;;;2.70;;
142;SDS011;63667;49.046;8.468;2023-07-13T10:54:26;4.70;;;2.83;;
142;SDS011;63667;49.046;8.468;2023-07-13T10:57:06;5.67;;;3.00;;
142;SDS011;63667;49.046;8.468;2023-07-13T10:59:35;3.60;;;3.10;;
142;SDS011;63667;49.046;8.468;2023-07-13T11:04:42;7.40;;;3.10;;
142;SDS011;63667;49.046;8.468;2023-07-13T11:07:20;3.90;;;3.17;;
142;SDS011;63667;49.046;8.468;2023-07-13T11:09:51;4.50;;;3.07;;
142;SDS011;63667;49.046;8.468;2023-07-13T11:19:52;3.37;;;3.17;;
142;SDS011;63667;49.046;8.468;2023-07-13T11:22:23;4.70;;;2.90;;
142;SDS011;63667;49.046;8.468;2023-07-13T11:24:52;8.87;;;3.30;;
142;SDS011;63667;49.046;8.468;2023-07-13T11:27:35;5.43;;;3.23;;
142;SDS011;63667;49.046;8.468;2023-07-13T11:30:23;5.00;;;3.07;;
142;SDS011;63667;49.046;8.468;2023-07-13T11:33:03;4.27;;;3.30;;
142;SDS011;63667;49.046;8.468;2023-07-13T11:35:35;4.87;;;3.30;;
142;SDS011;63667;49.046;8.468;2023-07-13T11:38:09;3.97;;;3.17;;
142;SDS011;63667;49.046;8.468;2023-07-13T11:40:39;9.73;;;3.27;;
142;SDS011;63667;49.046;8.468;2023-07-13T11:43:06;4.83;;;3.17;;
142;SDS011;63667;49.046;8.468;2023-07-13T11:45:33;6.37;;;3.20;;
142;SDS011;63667;49.046;8.468;2023-07-13T11:48:01;5.37;;;3.20;;
142;SDS011;63667;49.046;8.468;2023-07-13T11:50:28;6.73;;;3.37;;
142;SDS011;63667;49.046;8.468;2023-07-13T11:52:57;4.73;;;3.40;;
142;SDS011;63667;49.046;8.468;2023-07-13T11:55:26;5.10;;;3.40;;
142;SDS011;63667;49.046;8.468;2023-07-13T11:57:57;7.37;;;3.60;;
142;SDS011;63667;49.046;8.468;2023-07-13T12:00:31;8.77;;;3.30;;
142;SDS011;63667;49.046;8.468;2023-07-13T12:02:59;6.57;;;3.13;;
142;SDS011;63667;49.046;8.468;2023-07-13T12:05:28;6.93;;;3.30;;
142;SDS011;63667;49.046;8.468;2023-07-13T12:07:57;6.33;;;3.13;;
142;SDS011;63667;49.046;8.468;2023-07-13T12:10:25;4.23;;;3.10;;
142;SDS011;63667;49.046;8.468;2023-07-13T12:13:13;5.80;;;2.90;;
142;SDS011;63667;49.046;8.468;2023-07-13T12:15:41;7.43;;;3.20;;
142;SDS011;63667;49.046;8.468;2023-07-13T12:18:15;5.07;;;3.10;;
142;SDS011;63667;49.046;8.468;2023-07-13T12:20:43;3.67;;;3.40;;
142;SDS011;63667;49.046;8.468;2023-07-13T12:23:22;3.97;;;3.07;;
142;SDS011;63667;49.046;8.468;2023-07-13T12:25:51;7.20;;;3.60;;
142;SDS011;63667;49.046;8.468;2023-07-13T12:31:00;10.40;;;3.00;;
142;SDS011;63667;49.046;8.468;2023-07-13T12:33:30;6.83;;;3.20;;
142;SDS011;63667;49.046;8.468;2023-07-13T12:36:00;5.60;;;3.07;;
142;SDS011;63667;49.046;8.468;2023-07-13T12:38:28;3.47;;;2.90;;
142;SDS011;63667;49.046;8.468;2023-07-13T12:40:56;5.03;;;3.37;;
142;SDS011;63667;49.046;8.468;2023-07-13T12:43:24;4.70;;;3.10;;
142;SDS011;63667;49.046;8.468;2023-07-13T12:46:35;4.10;;;2.93;;
142;SDS011;63667;49.046;8.468;2023-07-13T12:48:43;8.63;;;3.20;;
142;SDS011;63667;49.046;8.468;2023-07-13T12:51:14;6.87;;;3.50;;
142;SDS011;63667;49.046;8.468;2023-07-13T12:53:42;4.43;;;3.07;;
142;SDS011;63667;49.046;8.468;2023-07-13T12:56:14;6.17;;;2.80;;
142;SDS011;63667;49.046;8.468;2023-07-13T12:58:43;5.37;;;3.20;;
142;SDS011;63667;49.046;8.468;2023-07-13T13:01:12;6.53;;;2.80;;
142;SDS011;63667;49.046;8.468;2023-07-13T13:03:52;3.63;;;2.97;;
142;SDS011;63667;49.046;8.468;2023-07-13T13:06:33;5.73;;;2.90;;
142;SDS011;63667;49.046;8.468;2023-07-13T13:09:03;7.73;;;2.73;;
142;SDS011;63667;49.046;8.468;2023-07-13T13:11:31;3.17;;;2.90;;
142;SDS011;63667;49.046;8.468;2023-07-13T13:13:57;3.23;;;2.77;;
142;SDS011;63667;49.046;8.468;2023-07-13T13:16:32;4.17;;;2.90;;
142;SDS011;63667;49.046;8.468;2023-07-13T13:19:05;5.37;;;2.87;;
142;SDS011;63667;49.046;8.468;2023-07-13T13:21:37;4.00;;;2.43;;
142;SDS011;63667;49.046;8.468;2023-07-13T13:24:08;3.07;;;2.90;;
142;SDS011;63667;49.046;8.468;2023-07-13T13:26:37;7.87;;;2.87;;
142;SDS011;63667;49.046;8.468;2023-07-13T13:29:25;4.57;;;2.97;;
142;SDS011;63667;49.046;8.468;2023-07-13T13:31:52;5.63;;;2.67;;
142;SDS011;63667;49.046;8.468;2023-07-13T13:34:21;4.33;;;2.60;;
142;SDS011;63667;49.046;8.468;2023-07-13T13:36:49;3.20;;;2.90;;
142;SDS011;63667;49.046;8.468;2023-07-13T13:39:21;5.13;;;2.60;;
142;SDS011;63667;49.046;8.468;2023-07-13T13:41:49;5.80;;;3.20;;
142;SDS011;63667;49.046;8.468;2023-07-13T13:44:17;4.00;;;2.53;;
142;SDS011;63667;49.046;8.468;2023-07-13T13:46:45;4.33;;;2.40;;
142;SDS011;63667;49.046;8.468;2023-07-13T13:49:17;4.87;;;2.67;;
142;SDS011;63667;49.046;8.468;2023-07-13T13:51:44;8.57;;;2.93;;
142;SDS011;63667;49.046;8.468;2023-07-13T13:54:12;8.43;;;2.70;;
142;SDS011;63667;49.046;8.468;2023-07-13T13:56:43;5.53;;;2.63;;
142;SDS011;63667;49.046;8.468;2023-07-13T13:59:11;4.67;;;2.77;;
142;SDS011;63667;49.046;8.468;2023-07-13T14:01:38;7.50;;;2.77;;
142;SDS011;63667;49.046;8.468;2023-07-13T14:04:06;3.70;;;2.53;;
142;SDS011;63667;49.046;8.468;2023-07-13T14:06:34;7.43;;;2.80;;
142;SDS011;63667;49.046;8.468;2023-07-13T14:09:02;4.37;;;2.90;;
142;SDS011;63667;49.046;8.468;2023-07-13T14:11:29;2.47;;;2.37;;
142;SDS011;63667;49.046;8.468;2023-07-13T14:13:58;4.87;;;2.60;;
142;SDS011;63667;49.046;8.468;2023-07-13T14:16:28;3.53;;;2.50;;
142;SDS011;63667;49.046;8.468;2023-07-13T14:18:57;7.57;;;2.80;;
142;SDS011;63667;49.046;8.468;2023-07-13T14:21:26;3.17;;;2.90;;
142;SDS011;63667;49.046;8.468;2023-07-13T14:23:55;4.00;;;2.60;;
142;SDS011;63667;49.046;8.468;2023-07-13T14:26:23;7.23;;;2.87;;
142;SDS011;63667;49.046;8.468;2023-07-13T14:28:51;4.07;;;2.60;;
142;SDS011;63667;49.046;8.468;2023-07-13T14:31:19;4.87;;;2.60;;
142;SDS011;63667;49.046;8.468;2023-07-13T14:33:46;6.60;;;2.60;;
142;SDS011;63667;49.046;8.468;2023-07-13T14:38:50;4.00;;;2.27;;
142;SDS011;63667;49.046;8.468;2023-07-13T14:41:17;4.10;;;2.77;;
142;SDS011;63667;49.046;8.468;2023-07-13T14:43:45;4.07;;;2.50;;
142;SDS011;63667;49.046;8.468;2023-07-13T14:48:50;6.67;;;2.80;;
142;SDS011;63667;49.046;8.468;2023-07-13T14:51:17;2.87;;;2.40;;
142;SDS011;63667;49.046;8.468;2023-07-13T14:53:44;9.73;;;3.10;;
142;SDS011;63667;49.046;8.468;2023-07-13T14:56:12;5.03;;;2.80;;
142;SDS011;63667;49.046;8.468;2023-07-13T14:58:40;4.23;;;2.80;;
142;SDS011;63667;49.046;8.468;2023-07-13T15:01:16;5.40;;;3.00;;
142;SDS011;63667;49.046;8.468;2023-07-13T15:03:47;4.40;;;2.60;;
142;SDS011;63667;49.046;8.468;2023-07-13T15:06:14;3.33;;;2.87;;
142;SDS011;63667;49.046;8.468;2023-07-13T15:08:43;4.30;;;2.70;;
142;SDS011;63667;49.046;8.468;2023-07-13T15:11:15;3.43;;;2.80;;
142;SDS011;63667;49.046;8.468;2023-07-13T15:13:42;5.20;;;2.77;;
142;SDS011;63667;49.046;8.468;2023-07-13T15:16:13;3.40;;;2.87;;
142;SDS011;63667;49.046;8.468;2023-07-13T15:18:42;3.73;;;2.63;;
142;SDS011;63667;49.046;8.468;2023-07-13T15:21:10;6.37;;;2.90;;
142;SDS011;63667;49.046;8.468;2023-07-13T15:23:40;3.10;;;2.83;;
142;SDS011;63667;49.046;8.468;2023-07-13T15:26:11;5.70;;;3.00;;
142;SDS011;63667;49.046;8.468;2023-07-13T15:28:40;4.77;;;2.67;;
142;SDS011;63667;49.046;8.468;2023-07-13T15:31:15;5.17;;;3.00;;
142;SDS011;63667;49.046;8.468;2023-07-13T15:33:43;4.40;;;2.50;;
142;SDS011;63667;49.046;8.468;2023-07-13T15:36:17;3.57;;;2.70;;
142;SDS011;63667;49.046;8.468;2023-07-13T15:38:46;4.10;;;2.70;;
142;SDS011;63667;49.046;8.468;2023-07-13T15:43:42;3.47;;;2.80;;
142;SDS011;63667;49.046;8.468;2023-07-13T15:46:10;4.43;;;2.77;;
142;SDS011;63667;49.046;8.468;2023-07-13T15:48:37;3.53;;;2.90;;
142;SDS011;63667;49.046;8.468;2023-07-13T15:51:05;3.80;;;2.60;;
142;SDS011;63667;49.046;8.468;2023-07-13T15:53:36;11.17;;;3.13;;
142;SDS011;63667;49.046;8.468;2023-07-13T15:59:01;9.37;;;2.93;;
142;SDS011;63667;49.046;8.468;2023-07-13T16:01:40;5.20;;;2.83;;